Time;durP1;ratioP1;P1;durP2;ratioP2;P2;SDS_P1;SDS_P2;PMS_P1;PMS_P2;Temp;Humidity;BMP_temperature;BMP_pressure;BME280_temperature;BME280_humidity;BME280_pressure;Samples;Min_cycle;Max_cycle;Signal;HPM_P1;HPM_P2
2022/03/16 00:01:24;;;;;;;57.33;22.10;;;;;;;3.88;100.00;102341.97;5225966;28;20024;-77
2022/03/16 00:03:54;;;;;;;47.42;21.60;;;;;;;3.86;100.00;102335.88;5220916;28;20447;-77
2022/03/16 00:06:25;;;;;;;51.28;22.33;;;;;;;3.93;100.00;102344.38;5226682;28;20029;-77
2022/03/16 00:08:55;;;;;;;53.03;24.13;;;;;;;3.95;100.00;102334.50;5225344;28;20463;-77
2022/03/16 00:11:26;;;;;;;52.30;24.58;;;;;;;3.98;100.00;102337.00;5226000;28;20074;-77
2022/03/16 00:13:56;;;;;;;49.58;22.98;;;;;;;3.99;100.00;102330.72;5226268;28;20057;-77
2022/03/16 00:16:27;;;;;;;48.10;22.92;;;;;;;4.01;100.00;102331.50;5225996;28;20059;-77
2022/03/16 00:18:57;;;;;;;52.60;22.80;;;;;;;4.03;100.00;102332.28;5226269;28;20485;-77
2022/03/16 00:21:28;;;;;;;54.97;23.95;;;;;;;4.04;100.00;102331.31;5225926;28;20477;-77
2022/03/16 00:23:59;;;;;;;47.20;21.30;;;;;;;4.01;100.00;102327.03;5224559;28;20025;-77
2022/03/16 00:26:30;;;;;;;43.83;20.83;;;;;;;3.99;100.00;102328.09;5224728;28;20109;-77
2022/03/16 00:29:00;;;;;;;51.72;22.50;;;;;;;3.98;100.00;102316.59;5224933;28;20112;-77
2022/03/16 00:31:32;;;;;;;50.17;22.65;;;;;;;3.95;100.00;102315.91;5225592;28;20035;-77
2022/03/16 00:34:03;;;;;;;53.58;22.90;;;;;;;3.97;100.00;102308.75;5225877;28;20025;-77
2022/03/16 00:36:33;;;;;;;49.85;23.20;;;;;;;4.01;100.00;102310.25;5225309;28;20082;-77
2022/03/16 00:39:04;;;;;;;53.80;22.67;;;;;;;4.05;100.00;102306.47;5225480;28;20024;-77
2022/03/16 00:41:36;;;;;;;53.83;22.83;;;;;;;4.10;100.00;102299.94;5225801;28;20032;-77
2022/03/16 00:44:07;;;;;;;53.15;24.10;;;;;;;4.12;100.00;102303.41;5225580;28;20025;-76
2022/03/16 00:46:37;;;;;;;52.22;23.73;;;;;;;4.20;100.00;102304.72;5207923;28;20381;-77
2022/03/16 00:49:08;;;;;;;52.67;23.08;;;;;;;4.25;100.00;102303.50;5207561;28;20524;-77
2022/03/16 00:51:38;;;;;;;53.85;21.95;;;;;;;4.29;100.00;102299.75;5225622;28;20100;-77
2022/03/16 00:54:09;;;;;;;52.17;21.73;;;;;;;4.35;100.00;102307.34;5225176;28;20389;-76
2022/03/16 00:56:39;;;;;;;51.40;22.52;;;;;;;4.38;100.00;102308.97;5225665;28;20027;-77
2022/03/16 00:59:10;;;;;;;45.85;21.85;;;;;;;4.36;100.00;102311.69;5225369;28;20454;-77
2022/03/16 01:01:40;;;;;;;48.65;21.67;;;;;;;4.36;100.00;102311.69;5224796;28;20488;-76
2022/03/16 01:04:11;;;;;;;49.25;22.02;;;;;;;4.34;100.00;102320.72;5225407;28;20048;-77
2022/03/16 01:06:42;;;;;;;41.03;19.92;;;;;;;4.22;100.00;102314.34;5225172;28;20186;-77
2022/03/16 01:09:13;;;;;;;44.20;21.15;;;;;;;4.15;100.00;102312.97;5203493;28;20474;-77
2022/03/16 01:11:43;;;;;;;48.80;22.35;;;;;;;4.08;100.00;102322.25;5221601;28;20029;-77
2022/03/16 01:14:14;;;;;;;50.55;22.48;;;;;;;4.05;100.00;102322.41;5223584;28;20405;-77
2022/03/16 01:16:44;;;;;;;50.33;23.88;;;;;;;4.02;100.00;102317.28;5225075;28;20037;-77
2022/03/16 01:19:15;;;;;;;57.70;26.50;;;;;;;4.01;100.00;102319.06;5225334;28;20031;-77
2022/03/16 01:21:45;;;;;;;49.47;23.75;;;;;;;3.98;100.00;102299.81;5223829;28;20159;-77
2022/03/16 01:24:16;;;;;;;47.53;23.48;;;;;;;3.95;100.00;102302.63;5224464;28;20029;-77
2022/03/16 01:26:46;;;;;;;54.13;24.10;;;;;;;3.95;100.00;102307.94;5225064;28;20060;-77
2022/03/16 01:29:16;;;;;;;52.10;23.58;;;;;;;3.89;100.00;102302.03;5224811;28;20059;-77
2022/03/16 01:31:47;;;;;;;49.58;23.13;;;;;;;3.93;100.00;102293.91;5203079;28;20060;-77
2022/03/16 01:34:18;;;;;;;51.97;22.23;;;;;;;3.85;100.00;102289.03;5219920;28;20024;-77
2022/03/16 01:36:49;;;;;;;52.92;22.75;;;;;;;3.76;100.00;102292.19;5224678;28;20477;-77
2022/03/16 01:39:20;;;;;;;44.58;20.80;;;;;;;3.73;100.00;102292.41;5224394;28;20025;-76
2022/03/16 01:41:50;;;;;;;47.83;21.95;;;;;;;3.69;100.00;102293.50;5224598;28;20029;-75
2022/03/16 01:44:58;;;;;;;50.45;21.77;;;;;;;3.60;100.00;102294.88;5224702;28;20028;-75
2022/03/16 01:47:28;;;;;;;49.97;22.63;;;;;;;3.54;100.00;102289.91;5224824;28;20033;-75
2022/03/16 01:49:59;;;;;;;54.63;24.92;;;;;;;3.54;100.00;102287.25;5225058;28;20014;-75
2022/03/16 01:52:30;;;;;;;60.35;24.58;;;;;;;3.53;100.00;102288.22;5224885;28;20431;-75
2022/03/16 01:55:04;;;;;;;55.47;23.90;;;;;;;3.52;100.00;102290.00;5224399;28;20047;-75
2022/03/16 01:57:36;;;;;;;58.58;24.80;;;;;;;3.53;100.00;102288.22;5224590;28;20013;-75
2022/03/16 02:00:07;;;;;;;59.45;25.13;;;;;;;3.48;100.00;102287.59;5222919;28;20033;-75
2022/03/16 02:02:38;;;;;;;58.88;24.60;;;;;;;3.53;100.00;102288.22;5219440;28;20492;-75
2022/03/16 02:05:09;;;;;;;52.60;23.27;;;;;;;3.52;100.00;102286.50;5224514;28;20060;-76
2022/03/16 02:07:42;;;;;;;53.47;23.50;;;;;;;3.50;100.00;102285.72;5225010;28;20112;-76
2022/03/16 02:10:13;;;;;;;47.80;22.10;;;;;;;3.49;100.00;102286.66;5224414;28;20115;-75
2022/03/16 02:12:46;;;;;;;49.45;22.55;;;;;;;3.48;100.00;102285.81;5224664;28;20389;-74
2022/03/16 02:15:18;;;;;;;49.70;23.45;;;;;;;3.43;100.00;102282.56;5224155;28;20032;-75
2022/03/16 02:17:50;;;;;;;59.70;24.38;;;;;;;3.40;100.00;102279.22;5206907;28;20452;-75
2022/03/16 02:20:30;;;;;;;59.17;25.88;;;;;;;3.36;100.00;102279.41;5224110;28;20449;-75
2022/03/16 02:23:05;;;;;;;53.58;23.67;;;;;;;3.39;100.00;102275.69;5222696;28;20071;-75
2022/03/16 02:25:55;;;;;;;58.58;25.58;;;;;;;3.34;100.00;102273.31;5224348;28;20052;-75
2022/03/16 02:28:25;;;;;;;64.07;25.48;;;;;;;3.34;100.00;102275.09;5223214;28;20148;-75
2022/03/16 02:30:56;;;;;;;55.80;25.80;;;;;;;3.32;100.00;102277.84;5224243;28;20108;-75
2022/03/16 02:33:26;;;;;;;61.05;25.63;;;;;;;3.31;100.00;102273.50;5224881;28;20029;-75
2022/03/16 02:35:57;;;;;;;70.05;25.00;;;;;;;3.31;100.00;102286.75;5224250;28;20522;-74
2022/03/16 02:38:27;;;;;;;65.20;26.60;;;;;;;3.31;100.00;102278.78;5206905;28;20044;-75
2022/03/16 02:40:59;;;;;;;64.45;26.42;;;;;;;3.34;100.00;102288.38;5224520;28;20118;-75
2022/03/16 02:43:30;;;;;;;65.15;27.88;;;;;;;3.34;100.00;102281.25;5224451;28;20052;-75
2022/03/16 02:46:01;;;;;;;60.35;25.65;;;;;;;3.33;100.00;102276.03;5223769;28;20029;-75
2022/03/16 02:48:31;;;;;;;66.55;26.77;;;;;;;3.30;100.00;102286.81;5225553;28;20170;-75
2022/03/16 02:51:03;;;;;;;60.10;24.48;;;;;;;3.28;100.00;102283.41;5226702;28;20033;-75
2022/03/16 02:53:33;;;;;;;61.90;25.95;;;;;;;3.27;100.00;102279.03;5228542;28;20017;-75
2022/03/16 02:56:04;;;;;;;65.97;27.30;;;;;;;3.27;100.00;102276.38;5228091;28;20445;-75
2022/03/16 02:58:35;;;;;;;63.92;27.85;;;;;;;3.27;100.00;102271.09;5230102;28;20024;-75
2022/03/16 03:01:06;;;;;;;67.85;28.73;;;;;;;3.26;100.00;102267.59;5231574;28;20020;-75
2022/03/16 03:03:37;;;;;;;68.15;27.05;;;;;;;3.25;100.00;102276.44;5225204;28;20021;-75
2022/03/16 03:06:08;;;;;;;59.88;25.27;;;;;;;3.21;100.00;102274.06;5217292;28;20135;-75
2022/03/16 03:08:38;;;;;;;59.40;24.67;;;;;;;3.10;100.00;102274.63;5226554;28;20025;-75
2022/03/16 03:11:09;;;;;;;55.55;24.38;;;;;;;3.00;100.00;102273.44;5228524;28;20025;-75
2022/03/16 03:13:40;;;;;;;56.08;23.70;;;;;;;2.92;100.00;102267.69;5227848;28;20064;-75
2022/03/16 03:16:11;;;;;;;57.33;23.88;;;;;;;2.87;100.00;102264.44;5227658;28;20115;-75
2022/03/16 03:18:41;;;;;;;59.75;24.88;;;;;;;2.83;100.00;102269.88;5227918;28;20500;-75
2022/03/16 03:21:12;;;;;;;56.50;24.08;;;;;;;2.80;100.00;102271.84;5227192;28;20542;-75
2022/03/16 03:23:42;;;;;;;60.35;24.80;;;;;;;2.77;100.00;102272.00;5227522;28;20028;-75
2022/03/16 03:26:13;;;;;;;57.63;24.65;;;;;;;2.71;100.00;102257.31;5226071;28;20158;-75
2022/03/16 03:28:43;;;;;;;69.57;27.13;;;;;;;2.68;100.00;102244.19;5227531;28;20021;-75
2022/03/16 03:31:14;;;;;;;66.22;27.65;;;;;;;2.69;100.00;102245.91;5226603;28;20147;-75
2022/03/16 03:33:44;;;;;;;68.90;27.63;;;;;;;2.72;100.00;102251.06;5227071;28;20025;-75
2022/03/16 03:36:15;;;;;;;68.63;29.00;;;;;;;2.77;100.00;102250.81;5227051;28;20496;-75
2022/03/16 03:38:45;;;;;;;72.13;28.58;;;;;;;2.78;100.00;102245.41;5227418;28;20071;-75
2022/03/16 03:41:16;;;;;;;72.20;28.00;;;;;;;2.80;100.00;102245.34;5227554;28;20025;-75
2022/03/16 03:43:46;;;;;;;66.93;27.17;;;;;;;2.81;100.00;102247.91;5226155;28;20028;-75
2022/03/16 03:46:17;;;;;;;73.68;28.30;;;;;;;2.84;100.00;102247.75;5226669;28;20016;-75
2022/03/16 03:48:47;;;;;;;71.88;30.30;;;;;;;2.90;100.00;102248.34;5226892;28;20414;-75
2022/03/16 03:51:17;;;;;;;73.22;29.80;;;;;;;2.91;100.00;102248.25;5227048;28;20029;-75
2022/03/16 03:53:48;;;;;;;81.32;29.92;;;;;;;2.92;100.00;102247.34;5225985;28;20032;-75
2022/03/16 03:56:19;;;;;;;75.47;30.60;;;;;;;2.95;100.00;102248.94;5226774;28;20047;-75
2022/03/16 03:58:49;;;;;;;71.60;29.50;;;;;;;2.97;100.00;102247.94;5226568;28;20032;-75
2022/03/16 04:01:19;;;;;;;78.82;31.10;;;;;;;2.98;100.00;102247.00;5225741;28;20032;-75
2022/03/16 04:03:50;;;;;;;86.40;30.45;;;;;;;3.03;100.00;102246.75;5221201;28;20025;-75
2022/03/16 04:06:21;;;;;;;85.22;31.83;;;;;;;3.08;100.00;102245.56;5226711;28;20028;-75
2022/03/16 04:08:51;;;;;;;79.53;31.02;;;;;;;3.11;100.00;102241.88;5225547;28;20021;-75
2022/03/16 04:11:22;;;;;;;81.03;29.77;;;;;;;3.14;100.00;102235.56;5226525;28;20499;-75
2022/03/16 04:13:52;;;;;;;80.32;29.58;;;;;;;3.13;100.00;102229.41;5226894;28;20493;-75
2022/03/16 04:16:23;;;;;;;80.95;30.05;;;;;;;3.20;100.00;102230.75;5226268;28;20109;-75
2022/03/16 04:18:54;;;;;;;75.53;28.75;;;;;;;3.24;100.00;102240.25;5225589;28;20477;-75
2022/03/16 04:21:25;;;;;;;76.53;31.50;;;;;;;3.33;100.00;102225.66;5226888;28;20186;-75
2022/03/16 04:23:56;;;;;;;78.45;31.42;;;;;;;3.42;100.00;102221.63;5224776;28;20127;-75
2022/03/16 04:26:26;;;;;;;78.13;30.95;;;;;;;3.51;100.00;102224.59;5226031;28;20039;-76
2022/03/16 04:28:57;;;;;;;86.90;31.13;;;;;;;3.60;100.00;102213.47;5225329;28;20025;-75
2022/03/16 04:31:27;;;;;;;77.45;31.38;;;;;;;3.68;100.00;102215.69;5226148;28;20048;-75
2022/03/16 04:33:58;;;;;;;77.90;31.17;;;;;;;3.76;100.00;102217.88;5224802;28;20032;-75
2022/03/16 04:36:29;;;;;;;84.50;31.90;;;;;;;3.83;100.00;102220.09;5225762;28;20074;-75
2022/03/16 04:38:59;;;;;;;77.05;29.60;;;;;;;3.89;100.00;102221.53;5226122;28;20711;-75
2022/03/16 04:41:30;;;;;;;74.85;30.15;;;;;;;3.94;100.00;102224.78;5226331;28;20017;-75
2022/03/16 04:44:00;;;;;;;75.80;29.77;;;;;;;4.02;100.00;102232.31;5225995;28;20464;-75
2022/03/16 04:46:31;;;;;;;77.43;30.70;;;;;;;4.07;100.00;102231.09;5225526;28;20116;-75
2022/03/16 04:49:01;;;;;;;78.80;31.17;;;;;;;4.09;100.00;102231.00;5224548;28;20032;-75
2022/03/16 04:51:32;;;;;;;75.60;30.45;;;;;;;4.13;100.00;102235.19;5226134;28;20032;-75
2022/03/16 04:54:03;;;;;;;67.13;29.80;;;;;;;4.16;100.00;102235.84;5190747;28;20025;-75
2022/03/16 04:56:35;;;;;;;74.18;30.35;;;;;;;4.16;100.00;102232.34;5215274;28;20033;-75
2022/03/16 04:59:05;;;;;;;73.55;29.35;;;;;;;4.22;100.00;102232.00;5225644;28;20404;-75
2022/03/16 05:01:35;;;;;;;69.05;28.70;;;;;;;4.22;100.00;102231.09;5224368;28;20108;-75
2022/03/16 05:04:06;;;;;;;68.22;30.20;;;;;;;4.23;100.00;102215.09;5225683;28;20110;-75
2022/03/16 05:06:36;;;;;;;75.97;28.42;;;;;;;4.24;100.00;102235.41;5226059;28;20032;-75
2022/03/16 05:09:07;;;;;;;73.80;29.92;;;;;;;4.24;100.00;102237.19;5225443;28;20021;-75
2022/03/16 05:11:40;;;;;;;71.88;28.40;;;;;;;4.28;100.00;102247.56;5224762;28;20500;-75
2022/03/16 05:14:11;;;;;;;72.95;27.48;;;;;;;4.30;100.00;102244.81;5225158;28;20032;-75
2022/03/16 05:16:41;;;;;;;70.45;29.20;;;;;;;4.34;100.00;102246.34;5225508;28;20033;-75
2022/03/16 05:19:12;;;;;;;69.50;28.48;;;;;;;4.36;100.00;102239.13;5225503;28;20461;-75
2022/03/16 05:21:43;;;;;;;67.82;28.27;;;;;;;4.38;100.00;102231.94;5225255;28;20443;-75
2022/03/16 05:24:13;;;;;;;66.78;28.75;;;;;;;4.37;100.00;102228.41;5224490;28;20033;-75
2022/03/16 05:26:44;;;;;;;72.40;28.85;;;;;;;4.36;100.00;102226.69;5225390;28;20460;-75
2022/03/16 05:29:14;;;;;;;70.97;28.55;;;;;;;4.40;100.00;102222.03;5223835;28;20028;-75
2022/03/16 05:31:45;;;;;;;72.40;30.25;;;;;;;4.38;100.00;102219.50;5224995;28;20029;-75
2022/03/16 05:34:15;;;;;;;67.13;28.85;;;;;;;4.39;100.00;102213.22;5223358;28;20520;-75
2022/03/16 05:36:46;;;;;;;68.07;28.90;;;;;;;4.39;100.00;102205.25;5224764;28;20029;-75
2022/03/16 05:39:16;;;;;;;76.50;28.88;;;;;;;4.40;100.00;102209.59;5224948;28;20092;-75
2022/03/16 05:41:47;;;;;;;66.30;27.40;;;;;;;4.36;100.00;102202.75;5225199;28;20523;-76
2022/03/16 05:44:17;;;;;;;72.60;28.10;;;;;;;4.40;100.00;102204.28;5224850;28;20456;-75
2022/03/16 05:46:47;;;;;;;68.38;29.33;;;;;;;4.44;100.00;102210.28;5223636;28;20108;-74
2022/03/16 05:49:18;;;;;;;66.90;29.20;;;;;;;4.47;100.00;102209.22;5224202;28;20029;-75
2022/03/16 05:51:48;;;;;;;71.63;29.27;;;;;;;4.51;100.00;102208.09;5224472;28;20051;-74
2022/03/16 05:54:19;;;;;;;66.28;27.58;;;;;;;4.54;100.00;102202.59;5224437;28;20465;-74
2022/03/16 05:56:49;;;;;;;69.22;28.80;;;;;;;4.56;100.00;102206.88;5224865;28;20056;-74
2022/03/16 05:59:20;;;;;;;70.35;27.17;;;;;;;4.56;100.00;102206.00;5224934;28;20020;-76
2022/03/16 06:01:51;;;;;;;68.93;28.20;;;;;;;4.58;100.00;102214.78;5221930;28;20049;-75
2022/03/16 06:04:22;;;;;;;64.47;27.13;;;;;;;4.60;100.00;102216.38;5221815;28;20036;-74
2022/03/16 06:06:52;;;;;;;65.50;26.67;;;;;;;4.64;100.00;102215.22;5224795;28;20049;-75
2022/03/16 06:09:23;;;;;;;64.85;27.45;;;;;;;4.66;100.00;102210.66;5224410;28;20465;-75
2022/03/16 06:11:53;;;;;;;60.80;25.15;;;;;;;4.66;100.00;102207.16;5223133;28;20024;-78
2022/03/16 06:14:24;;;;;;;58.05;25.52;;;;;;;4.70;100.00;102207.84;5223666;28;20402;-77
2022/03/16 06:16:54;;;;;;;62.78;26.45;;;;;;;4.74;100.00;102210.22;5223148;28;20025;-76
2022/03/16 06:19:25;;;;;;;64.05;26.58;;;;;;;4.80;100.00;102211.63;5224617;28;20036;-76
2022/03/16 06:21:55;;;;;;;57.70;24.80;;;;;;;4.83;100.00;102214.09;5224992;28;20385;-75
2022/03/16 06:24:26;;;;;;;65.18;25.05;;;;;;;4.86;100.00;102212.09;5227225;28;20425;-75
2022/03/16 06:26:56;;;;;;;51.88;23.45;;;;;;;4.89;100.00;102219.88;5228695;28;20025;-75
2022/03/16 06:29:26;;;;;;;48.65;23.42;;;;;;;4.91;100.00;102215.31;5227822;28;20036;-75
2022/03/16 06:31:57;;;;;;;49.80;22.88;;;;;;;4.93;100.00;102220.56;5215844;28;20017;-74
2022/03/16 06:34:28;;;;;;;55.58;24.92;;;;;;;4.96;100.00;102220.34;5228391;28;20041;-76
2022/03/16 06:36:59;;;;;;;51.42;22.10;;;;;;;4.96;100.00;102222.16;5227105;28;20503;-77
2022/03/16 06:39:29;;;;;;;48.53;21.98;;;;;;;4.95;100.00;102213.31;5228779;28;20119;-76
2022/03/16 06:42:00;;;;;;;51.97;23.60;;;;;;;4.91;100.00;102220.63;5227305;28;20074;-76
2022/03/16 06:44:30;;;;;;;56.25;23.95;;;;;;;4.92;100.00;102224.16;5228440;28;20025;-76
2022/03/16 06:47:01;;;;;;;50.80;23.38;;;;;;;4.93;100.00;102224.06;5228294;28;20591;-76
2022/03/16 06:49:32;;;;;;;49.83;22.58;;;;;;;4.96;100.00;102225.66;5228059;28;20039;-75
2022/03/16 06:52:02;;;;;;;48.42;23.23;;;;;;;5.01;100.00;102217.41;5227113;28;20056;-75
2022/03/16 06:54:33;;;;;;;48.85;22.77;;;;;;;5.08;100.00;102218.75;5227686;28;20044;-76
2022/03/16 06:57:04;;;;;;;48.38;22.33;;;;;;;5.13;100.00;102213.97;5226826;28;20045;-75
2022/03/16 06:59:34;;;;;;;46.53;20.67;;;;;;;5.22;100.00;102207.19;5226798;28;20396;-76
2022/03/16 07:02:05;;;;;;;44.42;21.13;;;;;;;5.40;100.00;102212.19;5206121;28;20036;-76
2022/03/16 07:04:35;;;;;;;44.72;19.50;;;;;;;5.57;100.00;102215.56;5215239;28;20035;-76
2022/03/16 07:07:05;;;;;;;41.97;19.83;;;;;;;5.72;100.00;102206.56;5225156;28;20075;-75
2022/03/16 07:09:36;;;;;;;41.30;19.75;;;;;;;5.82;100.00;102210.31;5227970;28;20103;-76
2022/03/16 07:12:07;;;;;;;40.65;18.58;;;;;;;5.95;100.00;102215.72;5227499;28;20031;-75
2022/03/16 07:14:38;;;;;;;40.83;18.65;;;;;;;6.05;100.00;102211.47;5226843;28;20095;-75
2022/03/16 07:17:08;;;;;;;33.88;15.80;;;;;;;6.14;100.00;102208.19;5227598;28;20058;-75
2022/03/16 07:19:38;;;;;;;36.90;17.65;;;;;;;6.33;100.00;102201.63;5227546;28;20070;-75
2022/03/16 07:22:09;;;;;;;34.72;17.52;;;;;;;6.58;100.00;102211.44;5226515;28;20033;-77
2022/03/16 07:24:40;;;;;;;38.42;17.60;;;;;;;6.83;100.00;102206.06;5227006;28;20063;-73
2022/03/16 07:27:12;;;;;;;33.78;16.73;;;;;;;7.07;100.00;102213.28;5227224;28;20056;-73
2022/03/16 07:29:43;;;;;;;33.63;15.73;;;;;;;7.18;100.00;102208.03;5224435;28;20017;-73
2022/03/16 07:32:13;;;;;;;33.17;15.75;;;;;;;7.27;100.00;102210.88;5219223;28;20036;-73
2022/03/16 07:34:43;;;;;;;31.27;15.75;;;;;;;7.51;100.00;102213.56;5225660;28;20025;-73
2022/03/16 07:37:14;;;;;;;31.38;14.88;;;;;;;7.66;100.00;102205.38;5227465;28;20049;-73
2022/03/16 07:39:45;;;;;;;26.55;14.57;;;;;;;7.87;100.00;102198.44;5226989;28;20037;-73
2022/03/16 07:42:16;;;;;;;30.25;15.40;;;;;;;8.13;100.00;102207.13;5226979;28;20096;-73
2022/03/16 07:44:49;;;;;;;28.60;15.48;;;;;;;8.33;100.00;102202.94;5226947;28;20029;-73
2022/03/16 07:47:19;;;;;;;27.58;14.90;;;;;;;8.56;100.00;102207.38;5227125;28;20385;-73
2022/03/16 07:49:49;;;;;;;29.50;14.70;;;;;;;8.87;100.00;102214.81;5227220;28;20027;-73
2022/03/16 07:52:21;;;;;;;26.17;14.48;;;;;;;8.77;100.00;102207.50;5227427;28;20052;-73
2022/03/16 07:54:51;;;;;;;28.60;15.20;;;;;;;8.77;100.00;102212.00;5227435;28;20029;-73
2022/03/16 07:57:22;;;;;;;26.48;13.93;;;;;;;8.91;100.00;102205.56;5227128;28;20040;-73
2022/03/16 07:59:53;;;;;;;29.70;15.57;;;;;;;9.02;100.00;102217.13;5226407;28;20372;-73
2022/03/16 08:02:26;;;;;;;24.67;13.88;;;;;;;9.37;100.00;102205.38;5221071;28;20112;-72
2022/03/16 08:04:58;;;;;;;26.52;14.75;;;;;;;9.62;100.00;102214.09;5227082;28;20040;-74
2022/03/16 08:07:29;;;;;;;25.30;13.63;;;;;;;9.57;100.00;102206.44;5227476;28;20496;-72
2022/03/16 08:10:00;;;;;;;26.23;13.43;;;;;;;9.78;100.00;102222.53;5227831;28;20033;-73
2022/03/16 08:12:31;;;;;;;27.55;14.52;;;;;;;9.84;100.00;102220.22;5227291;28;20028;-74
2022/03/16 08:15:02;;;;;;;25.95;13.90;;;;;;;9.95;100.00;102218.47;5226800;28;20098;-75
2022/03/16 08:17:33;;;;;;;22.30;12.60;;;;;;;9.88;100.00;102217.28;5226364;28;20017;-74
2022/03/16 08:20:04;;;;;;;25.65;13.32;;;;;;;9.92;100.00;102214.22;5226927;28;20075;-73
2022/03/16 08:22:35;;;;;;;22.80;12.90;;;;;;;9.99;100.00;102212.72;5227534;28;20435;-75
2022/03/16 08:25:09;;;;;;;23.40;12.63;;;;;;;9.71;100.00;102216.84;5226614;28;20104;-74
2022/03/16 08:27:40;;;;;;;21.85;12.45;;;;;;;9.83;100.00;102206.94;5226135;28;20370;-74
2022/03/16 08:30:10;;;;;;;24.95;13.80;;;;;;;10.17;100.00;102217.50;5226043;28;20028;-75
2022/03/16 08:32:42;;;;;;;23.83;12.93;;;;;;;10.34;100.00;102207.09;5226244;28;20029;-73
2022/03/16 08:35:12;;;;;;;23.85;12.48;;;;;;;10.73;100.00;102211.78;5226212;28;20031;-75
2022/03/16 08:37:43;;;;;;;23.00;12.50;;;;;;;10.97;100.00;102212.31;5226521;28;20037;-75
2022/03/16 08:40:16;;;;;;;25.10;12.68;;;;;;;10.80;100.00;102212.97;5226148;28;20025;-74
2022/03/16 08:42:48;;;;;;;21.20;12.40;;;;;;;10.95;100.00;102217.00;5225567;28;20036;-74
2022/03/16 08:45:19;;;;;;;21.63;11.65;;;;;;;10.63;100.00;102212.59;5225618;28;20061;-75
2022/03/16 08:47:50;;;;;;;21.40;11.55;;;;;;;10.90;100.00;102208.50;5225491;28;20098;-73
2022/03/16 08:50:21;;;;;;;22.63;11.48;;;;;;;11.05;100.00;102204.44;5226873;28;20089;-74
2022/03/16 08:52:51;;;;;;;24.42;13.18;;;;;;;11.28;100.00;102204.22;5226774;28;20112;-74
2022/03/16 08:55:22;;;;;;;25.35;13.73;;;;;;;11.32;100.00;102203.81;5226166;28;20045;-73
2022/03/16 08:57:52;;;;;;;23.80;12.95;;;;;;;10.92;100.00;102209.19;5226217;28;20491;-74
2022/03/16 09:00:23;;;;;;;22.25;12.68;;;;;;;10.93;100.00;102207.34;5226319;28;20366;-74
2022/03/16 09:02:54;;;;;;;23.30;12.68;;;;;;;11.45;100.00;102208.09;5226400;28;20497;-74
2022/03/16 09:05:24;;;;;;;21.65;11.65;;;;;;;11.31;100.00;102209.34;5225791;28;20025;-73
2022/03/16 09:07:55;;;;;;;21.20;12.25;;;;;;;11.31;100.00;102212.88;5226695;28;20021;-74
2022/03/16 09:10:25;;;;;;;24.65;13.52;;;;;;;11.24;100.00;102208.16;5226855;28;20075;-74
2022/03/16 09:12:56;;;;;;;20.75;11.95;;;;;;;11.51;100.00;102211.06;5227249;28;20020;-74
2022/03/16 09:15:26;;;;;;;26.20;11.23;;;;;;;11.33;100.00;102213.56;5225674;28;20435;-75
2022/03/16 09:17:57;;;;;;;27.70;13.05;;;;;;;11.47;100.00;102208.78;5227312;28;20139;-75
2022/03/16 09:20:28;;;;;;;24.45;12.88;;;;;;;11.78;100.00;102201.47;5226391;28;20036;-74
2022/03/16 09:22:59;;;;;;;23.10;12.60;;;;;;;11.81;100.00;102198.50;5226927;28;20029;-74
2022/03/16 09:25:30;;;;;;;20.73;11.55;;;;;;;12.27;100.00;102205.00;5226930;28;20037;-74
2022/03/16 09:28:01;;;;;;;20.92;11.80;;;;;;;12.38;100.00;102197.59;5224886;28;20068;-74
2022/03/16 09:30:31;;;;;;;20.20;11.45;;;;;;;12.23;100.00;102203.59;5215947;28;20108;-74
2022/03/16 09:33:02;;;;;;;19.80;11.15;;;;;;;12.48;100.00;102204.81;5222830;28;20465;-75
2022/03/16 09:35:35;;;;;;;19.25;11.02;;;;;;;12.35;100.00;102208.69;5224895;28;20060;-75
2022/03/16 09:38:05;;;;;;;19.38;11.23;;;;;;;11.77;100.00;102203.31;5225309;28;20020;-74
2022/03/16 09:40:36;;;;;;;19.65;11.48;;;;;;;11.64;100.00;102202.72;5225015;28;20035;-75
2022/03/16 09:43:08;;;;;;;21.95;12.23;;;;;;;11.76;100.00;102195.38;5226068;28;20025;-76
2022/03/16 09:45:46;;;;;;;22.50;11.30;;;;;;;11.48;100.00;102202.41;5224572;28;20056;-75
2022/03/16 09:48:18;;;;;;;22.50;11.57;;;;;;;11.31;100.00;102190.53;5224787;28;20017;-75
2022/03/16 09:50:49;;;;;;;21.08;11.25;;;;;;;11.48;100.00;102186.28;5224125;28;20052;-74
2022/03/16 09:53:20;;;;;;;21.20;11.30;;;;;;;11.96;100.00;102186.34;5223584;28;20079;-75
2022/03/16 09:55:52;;;;;;;24.25;11.43;;;;;;;11.96;100.00;102185.50;5224254;28;20465;-75
2022/03/16 09:58:22;;;;;;;25.30;12.23;;;;;;;12.12;100.00;102180.38;5223926;28;20021;-76
2022/03/16 10:00:53;;;;;;;22.25;11.55;;;;;;;11.92;100.00;102183.09;5225234;28;20397;-75
2022/03/16 10:03:28;;;;;;;20.65;11.20;;;;;;;11.74;100.00;102183.91;5219900;28;20036;-75
2022/03/16 10:05:59;;;;;;;25.73;12.30;;;;;;;11.75;100.00;102186.47;5225003;28;20119;-76
2022/03/16 10:08:32;;;;;;;21.50;10.48;;;;;;;11.56;100.00;102191.84;5224440;28;20528;-75
2022/03/16 10:14:14;;;;;;;24.77;10.75;;;;;;;11.51;100.00;102172.59;5215776;28;20021;-76
2022/03/16 10:19:54;;;;;;;24.85;11.60;;;;;;;11.14;100.00;102190.22;5225270;28;20485;-75
2022/03/16 10:22:28;;;;;;;28.45;12.00;;;;;;;10.98;100.00;102181.81;5225452;28;20081;-75
2022/03/16 10:25:00;;;;;;;24.43;11.93;;;;;;;10.93;100.00;102181.34;5224334;28;20032;-76
2022/03/16 10:30:21;;;;;;;27.25;12.23;;;;;;;11.00;100.00;102174.47;5224820;28;20029;-76
2022/03/16 10:32:54;;;;;;;20.35;10.85;;;;;;;11.27;100.00;102173.81;5224131;28;20547;-76
2022/03/16 10:35:25;;;;;;;23.63;11.82;;;;;;;11.29;100.00;102168.31;5222858;28;20104;-74
2022/03/16 10:38:09;;;;;;;23.02;12.02;;;;;;;11.32;100.00;102178.78;5223067;28;20453;-75
2022/03/16 10:40:39;;;;;;;22.50;11.40;;;;;;;11.37;100.00;102189.97;5222515;28;20086;-75
2022/03/16 10:49:03;;;;;;;30.30;11.93;;;;;;;11.58;100.00;102174.56;5224213;28;20025;-75
2022/03/16 10:51:34;;;;;;;26.80;11.88;;;;;;;11.78;100.00;102172.72;5224233;28;20028;-76
2022/03/16 10:54:05;;;;;;;24.83;10.88;;;;;;;11.68;100.00;102180.78;5224077;28;20485;-75
2022/03/16 10:56:39;;;;;;;31.20;12.63;;;;;;;11.49;100.00;102174.56;5224540;28;20037;-75
2022/03/16 10:59:10;;;;;;;29.73;12.50;;;;;;;11.78;100.00;102185.31;5224938;28;20017;-75
2022/03/16 11:01:41;;;;;;;24.20;12.48;;;;;;;12.10;100.00;102190.47;5223705;28;20047;-75
2022/03/16 11:04:12;;;;;;;25.70;11.88;;;;;;;12.22;100.00;102185.75;5224106;28;20511;-75
2022/03/16 11:06:44;;;;;;;25.65;12.27;;;;;;;12.25;100.00;102182.75;5224829;28;20037;-74
2022/03/16 11:09:17;;;;;;;26.38;12.20;;;;;;;11.94;100.00;102182.94;5225105;28;20017;-75
2022/03/16 11:14:38;;;;;;;28.63;12.48;;;;;;;12.05;100.00;102188.19;5227617;28;20025;-75
2022/03/16 11:17:10;;;;;;;25.15;11.48;;;;;;;12.08;100.00;102185.19;5228095;28;20029;-75
2022/03/16 11:19:44;;;;;;;22.15;11.90;;;;;;;12.14;100.00;102186.47;5228182;28;20036;-75
2022/03/16 11:22:36;;;;;;;23.13;11.95;;;;;;;12.22;100.00;102191.13;5227940;28;20028;-75
2022/03/16 11:25:23;;;;;;;27.52;12.77;;;;;;;12.01;100.00;102181.41;5227559;28;20060;-75
2022/03/16 11:27:54;;;;;;;25.70;12.63;;;;;;;12.10;100.00;102175.16;5227478;28;20467;-75
2022/03/16 11:30:29;;;;;;;23.13;11.45;;;;;;;12.15;100.00;102169.34;5218928;28;20320;-74
2022/03/16 11:33:18;;;;;;;27.70;11.60;;;;;;;12.23;100.00;102171.31;5224486;28;20171;-74
2022/03/16 11:35:52;;;;;;;31.23;13.60;;;;;;;12.26;100.00;102166.50;5226195;28;20029;-75
2022/03/16 11:38:23;;;;;;;25.60;12.80;;;;;;;12.31;100.00;102163.38;5227637;28;20107;-75
2022/03/16 11:40:54;;;;;;;23.08;12.18;;;;;;;12.35;100.00;102164.75;5227461;28;20120;-75
2022/03/16 11:43:25;;;;;;;26.33;12.35;;;;;;;12.39;100.00;102167.00;5227323;28;20560;-75